Time;durP1;ratioP1;P1;durP2;ratioP2;P2;SDS_P1;SDS_P2;PMS_P1;PMS_P2;Temp;Humidity;BMP_temperature;BMP_pressure;BME280_temperature;BME280_humidity;BME280_pressure;Samples;Min_cycle;Max_cycle;Signal;HPM_P1;HPM_P2
2022/05/22 00:02:21;;;;;;;11.07;3.92;;;;;;;;;;5008830;28;20123;-66
2022/05/22 00:04:47;;;;;;;9.95;3.50;;;;;;;;;;5006374;28;20103;-66
2022/05/22 00:07:12;;;;;;;13.27;3.67;;;;;;;;;;5004204;28;20042;-66
2022/05/22 00:09:38;;;;;;;10.82;3.60;;;;;;;;;;5007578;28;20053;-66
2022/05/22 00:12:05;;;;;;;7.53;3.67;;;;;;;;;;5001769;28;20038;-66
2022/05/22 00:14:31;;;;;;;6.75;3.60;;;;;;;;;;5007858;28;20079;-66
2022/05/22 00:16:59;;;;;;;7.28;3.17;;;;;;;;;;5008648;28;20042;-66
2022/05/22 00:19:26;;;;;;;7.22;3.63;;;;;;;;;;5002332;28;20046;-67
2022/05/22 00:21:52;;;;;;;9.55;3.88;;;;;;;;;;5002619;28;20843;-66
2022/05/22 00:24:24;;;;;;;7.82;3.80;;;;;;;;;;5003253;28;20049;-66
2022/05/22 00:26:49;;;;;;;9.88;3.97;;;;;;;;;;5004505;28;20558;-66
2022/05/22 00:29:15;;;;;;;6.80;3.65;;;;;;;;;;5005505;28;20050;-66
2022/05/22 00:31:42;;;;;;;7.85;3.72;;;;;;;;;;5007683;28;20061;-66
2022/05/22 00:34:08;;;;;;;12.35;4.38;;;;;;;;;;5007755;28;20046;-67
2022/05/22 00:36:33;;;;;;;11.90;3.80;;;;;;;;;;5005690;28;20041;-66
2022/05/22 00:38:59;;;;;;;6.90;3.60;;;;;;;;;;5000873;28;20049;-66
2022/05/22 00:41:24;;;;;;;9.68;3.83;;;;;;;;;;5008095;28;20041;-66
2022/05/22 00:43:52;;;;;;;7.65;3.60;;;;;;;;;;5004980;28;20122;-67
2022/05/22 00:46:19;;;;;;;6.38;3.90;;;;;;;;;;5009582;28;20049;-66
2022/05/22 00:48:53;;;;;;;7.72;3.40;;;;;;;;;;5007114;28;20664;-66
2022/05/22 00:51:29;;;;;;;7.68;3.78;;;;;;;;;;5002254;28;20038;-66
2022/05/22 00:54:01;;;;;;;7.90;3.75;;;;;;;;;;5007519;28;20038;-66
2022/05/22 00:56:34;;;;;;;9.48;3.88;;;;;;;;;;5021368;28;20029;-66
2022/05/22 00:59:00;;;;;;;7.03;3.40;;;;;;;;;;4995974;28;20034;-66
2022/05/22 01:01:26;;;;;;;9.25;3.55;;;;;;;;;;5007746;28;20046;-66
2022/05/22 01:03:53;;;;;;;10.95;3.97;;;;;;;;;;5006789;28;20049;-66
2022/05/22 01:06:24;;;;;;;9.43;3.92;;;;;;;;;;5006914;28;20050;-66
2022/05/22 01:08:50;;;;;;;6.53;3.30;;;;;;;;;;5004912;28;20042;-66
2022/05/22 01:11:23;;;;;;;11.25;3.45;;;;;;;;;;5007621;28;20119;-66
2022/05/22 01:13:56;;;;;;;9.57;3.70;;;;;;;;;;5003602;28;20038;-66
2022/05/22 01:16:21;;;;;;;9.30;4.22;;;;;;;;;;5004834;28;20491;-66
2022/05/22 01:18:47;;;;;;;7.25;3.40;;;;;;;;;;4997228;28;20145;-66
2022/05/22 01:21:16;;;;;;;8.82;3.80;;;;;;;;;;5005043;28;20069;-66
2022/05/22 01:23:42;;;;;;;8.93;3.33;;;;;;;;;;5006842;28;20088;-66
2022/05/22 01:26:08;;;;;;;6.85;3.47;;;;;;;;;;4997140;28;20033;-66
2022/05/22 01:28:34;;;;;;;7.30;3.70;;;;;;;;;;5003678;28;20053;-66
2022/05/22 01:31:00;;;;;;;9.63;4.15;;;;;;;;;;5006549;28;20049;-66
2022/05/22 01:33:26;;;;;;;9.43;3.80;;;;;;;;;;5002224;28;20050;-66
2022/05/22 01:35:51;;;;;;;6.80;3.70;;;;;;;;;;5021411;28;20117;-66
2022/05/22 01:38:17;;;;;;;6.18;3.67;;;;;;;;;;5006717;28;20478;-66
2022/05/22 01:40:42;;;;;;;7.28;3.90;;;;;;;;;;5003089;28;20509;-66
2022/05/22 01:43:07;;;;;;;7.55;3.53;;;;;;;;;;5006364;28;20555;-66
2022/05/22 01:45:33;;;;;;;7.18;3.58;;;;;;;;;;5001274;28;20041;-66
2022/05/22 01:47:58;;;;;;;6.50;3.65;;;;;;;;;;5002080;28;20038;-66
2022/05/22 01:50:24;;;;;;;9.73;3.67;;;;;;;;;;5007743;28;20029;-66
2022/05/22 01:52:49;;;;;;;7.70;3.72;;;;;;;;;;5006078;28;20041;-66
2022/05/22 01:55:15;;;;;;;6.45;3.33;;;;;;;;;;5001805;28;20042;-66
2022/05/22 01:57:40;;;;;;;6.28;3.90;;;;;;;;;;5006741;28;20050;-66
2022/05/22 02:00:09;;;;;;;7.55;3.78;;;;;;;;;;5007387;28;20052;-66
2022/05/22 02:02:34;;;;;;;5.53;3.55;;;;;;;;;;5007288;28;20406;-66
2022/05/22 02:05:02;;;;;;;7.53;4.70;;;;;;;;;;5006511;28;20018;-66
2022/05/22 02:10:11;;;;;;;6.00;3.72;;;;;;;;;;4995518;28;20134;-66
2022/05/22 02:12:36;;;;;;;11.07;3.80;;;;;;;;;;5004207;28;20125;-67
2022/05/22 02:15:02;;;;;;;6.82;3.75;;;;;;;;;;5000915;28;20101;-66
2022/05/22 02:17:27;;;;;;;8.75;4.35;;;;;;;;;;5005179;28;20058;-67
2022/05/22 02:19:53;;;;;;;8.68;4.00;;;;;;;;;;4993935;28;20101;-66
2022/05/22 02:22:18;;;;;;;9.25;4.45;;;;;;;;;;4988760;28;20038;-67
2022/05/22 02:24:49;;;;;;;5.40;3.88;;;;;;;;;;5007200;28;20092;-66
2022/05/22 02:27:15;;;;;;;11.50;4.13;;;;;;;;;;4997524;28;20103;-66
2022/05/22 02:29:40;;;;;;;6.82;3.88;;;;;;;;;;5006479;28;20050;-66
2022/05/22 02:32:06;;;;;;;11.48;3.78;;;;;;;;;;5007184;28;20563;-66
2022/05/22 02:34:33;;;;;;;9.30;4.35;;;;;;;;;;5006290;28;20046;-66
2022/05/22 02:36:58;;;;;;;11.93;4.03;;;;;;;;;;4996048;28;20121;-66
2022/05/22 02:39:23;;;;;;;7.75;4.07;;;;;;;;;;5003351;28;20128;-66
2022/05/22 02:41:49;;;;;;;9.20;3.58;;;;;;;;;;5006746;28;20030;-66
2022/05/22 02:44:14;;;;;;;9.80;4.13;;;;;;;;;;5006687;28;20096;-67
2022/05/22 02:46:41;;;;;;;10.13;4.13;;;;;;;;;;5006829;28;20065;-66
2022/05/22 02:49:07;;;;;;;7.65;4.05;;;;;;;;;;5006635;28;20045;-67
2022/05/22 02:51:33;;;;;;;6.25;3.95;;;;;;;;;;5021487;28;20041;-66
2022/05/22 02:53:59;;;;;;;6.65;3.95;;;;;;;;;;5006705;28;20040;-66
2022/05/22 02:56:25;;;;;;;9.65;4.35;;;;;;;;;;5006994;28;20399;-67
2022/05/22 02:58:50;;;;;;;7.03;3.80;;;;;;;;;;5006387;28;20040;-66
2022/05/22 03:01:16;;;;;;;7.80;4.30;;;;;;;;;;5006201;28;20034;-66
2022/05/22 03:03:41;;;;;;;7.60;3.65;;;;;;;;;;5006228;28;20103;-66
2022/05/22 03:06:40;;;;;;;7.63;3.90;;;;;;;;;;5006204;28;20817;-67
2022/05/22 03:08:58;;;;;;;7.10;3.90;;;;;;;;;;4995357;28;20050;-66
2022/05/22 03:11:23;;;;;;;7.10;3.90;;;;;;;;;;4999661;28;20022;-66
2022/05/22 03:13:49;;;;;;;7.57;3.70;;;;;;;;;;4998850;28;20034;-66
2022/05/22 03:16:15;;;;;;;7.63;3.90;;;;;;;;;;5006071;28;20593;-66
2022/05/22 03:18:40;;;;;;;7.50;4.35;;;;;;;;;;5005265;28;20117;-66
2022/05/22 03:21:06;;;;;;;8.27;4.20;;;;;;;;;;5004817;28;20129;-66
2022/05/22 03:23:31;;;;;;;8.38;4.35;;;;;;;;;;5006103;28;20461;-66
2022/05/22 03:25:57;;;;;;;7.65;4.25;;;;;;;;;;5002831;28;20038;-66
2022/05/22 03:28:23;;;;;;;9.75;4.05;;;;;;;;;;5005714;28;20062;-66
2022/05/22 03:30:49;;;;;;;8.27;4.28;;;;;;;;;;5007695;28;20077;-66
2022/05/22 03:33:14;;;;;;;8.43;3.97;;;;;;;;;;5007694;28;20478;-66
2022/05/22 03:35:39;;;;;;;7.45;4.00;;;;;;;;;;5003886;28;20041;-66
2022/05/22 03:38:05;;;;;;;7.72;3.58;;;;;;;;;;5007444;28;20057;-66
2022/05/22 03:40:30;;;;;;;10.90;4.07;;;;;;;;;;5006564;28;20530;-66
2022/05/22 03:42:56;;;;;;;8.48;4.03;;;;;;;;;;5009902;28;20045;-66
2022/05/22 03:45:21;;;;;;;7.22;3.47;;;;;;;;;;5009455;28;20583;-66
2022/05/22 03:47:46;;;;;;;7.40;3.78;;;;;;;;;;5008923;28;20041;-66
2022/05/22 03:50:14;;;;;;;8.35;3.75;;;;;;;;;;5008838;28;20088;-67
2022/05/22 03:52:42;;;;;;;8.30;3.88;;;;;;;;;;5007805;28;20467;-67
2022/05/22 03:55:11;;;;;;;6.55;3.90;;;;;;;;;;5009666;28;20813;-66
2022/05/22 03:57:37;;;;;;;9.82;4.65;;;;;;;;;;5009440;28;20042;-66
2022/05/22 04:00:08;;;;;;;9.93;4.13;;;;;;;;;;5009516;28;20084;-66
2022/05/22 04:02:35;;;;;;;8.23;4.03;;;;;;;;;;5008543;28;20523;-66
2022/05/22 04:05:01;;;;;;;7.10;3.60;;;;;;;;;;5006729;28;20028;-66
2022/05/22 04:07:27;;;;;;;7.93;3.72;;;;;;;;;;5005020;28;20547;-66
2022/05/22 04:09:53;;;;;;;13.80;4.95;;;;;;;;;;5008755;28;20758;-66
2022/05/22 04:12:18;;;;;;;7.10;3.90;;;;;;;;;;5004335;28;20041;-66
2022/05/22 04:14:43;;;;;;;6.60;3.92;;;;;;;;;;5008892;28;20084;-66
2022/05/22 04:17:09;;;;;;;9.02;3.85;;;;;;;;;;5009854;28;20096;-66
2022/05/22 04:19:36;;;;;;;10.00;4.15;;;;;;;;;;5001458;28;20038;-66
2022/05/22 04:22:02;;;;;;;7.65;4.05;;;;;;;;;;5008653;28;20116;-66
2022/05/22 04:27:11;;;;;;;8.93;4.43;;;;;;;;;;5006267;28;20108;-66
2022/05/22 04:29:37;;;;;;;7.38;4.50;;;;;;;;;;5008307;28;20049;-66
2022/05/22 04:32:03;;;;;;;8.13;4.20;;;;;;;;;;5008338;28;20028;-66
2022/05/22 04:34:29;;;;;;;9.20;4.13;;;;;;;;;;5003178;28;20049;-66
2022/05/22 04:36:54;;;;;;;8.38;3.90;;;;;;;;;;5008296;28;20034;-66
2022/05/22 04:39:20;;;;;;;6.15;4.13;;;;;;;;;;5007866;28;20637;-66
2022/05/22 04:41:45;;;;;;;10.50;4.30;;;;;;;;;;5005248;28;20022;-66
2022/05/22 04:44:11;;;;;;;7.97;4.13;;;;;;;;;;5023432;28;20109;-66
2022/05/22 04:46:36;;;;;;;5.80;3.70;;;;;;;;;;5008193;28;20034;-67
2022/05/22 04:49:01;;;;;;;7.15;4.20;;;;;;;;;;5006220;28;20531;-66
2022/05/22 04:51:27;;;;;;;6.97;4.10;;;;;;;;;;5008316;28;20030;-66
2022/05/22 04:53:52;;;;;;;10.38;5.03;;;;;;;;;;5022125;28;20507;-66
2022/05/22 04:56:18;;;;;;;8.52;4.55;;;;;;;;;;5008160;28;20749;-66
2022/05/22 04:58:45;;;;;;;11.82;4.97;;;;;;;;;;5007948;28;20064;-66
2022/05/22 05:01:11;;;;;;;8.30;4.50;;;;;;;;;;5007760;28;20103;-66
2022/05/22 05:03:36;;;;;;;9.32;5.15;;;;;;;;;;5007363;28;20042;-66
2022/05/22 05:06:02;;;;;;;11.73;5.03;;;;;;;;;;5008552;28;20797;-66
2022/05/22 05:08:29;;;;;;;11.05;5.35;;;;;;;;;;5007194;28;20109;-66
2022/05/22 05:10:55;;;;;;;10.02;4.97;;;;;;;;;;4997358;28;20086;-67
2022/05/22 05:13:21;;;;;;;9.93;5.00;;;;;;;;;;5006916;28;20064;-66
2022/05/22 05:16:00;;;;;;;10.15;5.07;;;;;;;;;;5007882;28;20080;-66
2022/05/22 05:18:26;;;;;;;12.35;5.63;;;;;;;;;;5005666;28;20036;-67
2022/05/22 05:20:51;;;;;;;10.32;5.20;;;;;;;;;;4999089;28;20050;-66
2022/05/22 05:23:17;;;;;;;12.70;5.45;;;;;;;;;;5007709;28;20037;-66
2022/05/22 05:25:42;;;;;;;9.10;5.35;;;;;;;;;;5005723;28;20033;-66
2022/05/22 05:28:07;;;;;;;11.02;5.47;;;;;;;;;;5003232;28;20069;-66
2022/05/22 05:30:33;;;;;;;11.50;5.22;;;;;;;;;;5006682;28;20423;-66
2022/05/22 05:32:58;;;;;;;10.18;6.00;;;;;;;;;;5005521;28;20049;-67
2022/05/22 05:35:23;;;;;;;12.25;6.40;;;;;;;;;;5001575;28;20038;-67
2022/05/22 05:37:49;;;;;;;16.75;7.10;;;;;;;;;;5007139;28;20038;-66
2022/05/22 05:40:14;;;;;;;15.65;7.00;;;;;;;;;;5005811;28;20068;-66
2022/05/22 05:42:40;;;;;;;17.10;6.93;;;;;;;;;;5019188;28;20048;-67
2022/05/22 05:45:07;;;;;;;11.07;6.60;;;;;;;;;;5000478;28;20415;-67
2022/05/22 05:47:33;;;;;;;14.38;7.30;;;;;;;;;;5003465;28;20376;-66
2022/05/22 05:49:59;;;;;;;14.13;7.32;;;;;;;;;;4997552;28;20049;-66
2022/05/22 05:52:24;;;;;;;13.45;7.07;;;;;;;;;;4996399;28;20062;-67
2022/05/22 05:54:49;;;;;;;17.33;7.55;;;;;;;;;;4996851;28;20037;-66
2022/05/22 05:57:15;;;;;;;19.45;8.00;;;;;;;;;;5004758;28;20045;-66
2022/05/22 05:59:41;;;;;;;18.90;8.43;;;;;;;;;;5004083;28;20109;-66
2022/05/22 06:02:11;;;;;;;16.88;8.18;;;;;;;;;;5006435;28;20034;-66
2022/05/22 06:04:36;;;;;;;19.58;8.73;;;;;;;;;;5006162;28;20050;-66
2022/05/22 06:07:02;;;;;;;23.73;9.50;;;;;;;;;;5004653;28;20526;-66
2022/05/22 06:09:27;;;;;;;20.90;9.02;;;;;;;;;;5005648;28;20046;-66
2022/05/22 06:11:53;;;;;;;16.13;8.88;;;;;;;;;;5003724;28;20531;-66
2022/05/22 06:14:18;;;;;;;18.20;9.13;;;;;;;;;;5001901;28;20444;-66
2022/05/22 06:16:43;;;;;;;19.83;9.48;;;;;;;;;;4998588;28;20053;-66
2022/05/22 06:19:09;;;;;;;14.75;8.48;;;;;;;;;;4998342;28;20096;-66
2022/05/22 06:21:34;;;;;;;18.40;9.07;;;;;;;;;;5000279;28;20041;-66
2022/05/22 06:23:59;;;;;;;18.65;9.23;;;;;;;;;;5003840;28;20626;-67
2022/05/22 06:26:25;;;;;;;18.05;9.52;;;;;;;;;;5004243;28;20065;-66
2022/05/22 06:28:50;;;;;;;24.05;10.23;;;;;;;;;;4998501;28;20691;-66
2022/05/22 06:31:15;;;;;;;25.60;9.98;;;;;;;;;;5003352;28;20549;-66
2022/05/22 06:33:41;;;;;;;21.25;9.82;;;;;;;;;;5000293;28;20050;-66
2022/05/22 06:36:13;;;;;;;17.08;9.55;;;;;;;;;;4999758;28;20072;-66
2022/05/22 06:41:22;;;;;;;22.23;10.23;;;;;;;;;;5000248;28;20064;-66
2022/05/22 06:43:51;;;;;;;19.25;9.52;;;;;;;;;;4999491;28;20046;-66
2022/05/22 06:46:30;;;;;;;18.75;9.93;;;;;;;;;;5002562;28;20103;-67
2022/05/22 06:48:56;;;;;;;22.05;10.63;;;;;;;;;;5006206;28;20048;-66
2022/05/22 06:51:22;;;;;;;23.88;10.32;;;;;;;;;;5006068;28;20044;-66
2022/05/22 06:53:47;;;;;;;22.00;10.02;;;;;;;;;;5003516;28;20034;-66
2022/05/22 06:56:12;;;;;;;24.27;11.00;;;;;;;;;;4999917;28;20085;-66
2022/05/22 06:58:38;;;;;;;21.60;10.40;;;;;;;;;;5001082;28;20046;-66
2022/05/22 07:01:03;;;;;;;23.85;10.85;;;;;;;;;;5001687;28;20183;-66
2022/05/22 07:03:28;;;;;;;36.58;16.33;;;;;;;;;;4997941;28;20125;-66
2022/05/22 07:05:54;;;;;;;27.83;13.45;;;;;;;;;;5001851;28;20061;-66
2022/05/22 07:08:19;;;;;;;32.50;13.82;;;;;;;;;;4998016;28;20033;-66
2022/05/22 07:13:28;;;;;;;40.53;19.40;;;;;;;;;;4993730;28;20053;-66
2022/05/22 07:15:58;;;;;;;40.40;18.05;;;;;;;;;;5001699;28;20042;-66
2022/05/22 07:18:24;;;;;;;32.25;16.20;;;;;;;;;;4998883;28;20041;-66
2022/05/22 07:20:49;;;;;;;37.40;16.70;;;;;;;;;;5002276;28;20034;-66
2022/05/22 07:23:14;;;;;;;37.67;17.13;;;;;;;;;;4998044;28;20042;-66
2022/05/22 07:25:40;;;;;;;32.30;13.63;;;;;;;;;;4998980;28;20073;-66
2022/05/22 07:28:05;;;;;;;29.70;12.52;;;;;;;;;;5001489;28;20431;-66
2022/05/22 07:30:33;;;;;;;26.13;13.13;;;;;;;;;;4996420;28;20555;-66
2022/05/22 07:32:58;;;;;;;29.70;12.20;;;;;;;;;;5000044;28;20048;-66
2022/05/22 07:35:24;;;;;;;22.02;11.05;;;;;;;;;;4997860;28;20041;-66
2022/05/22 07:37:50;;;;;;;25.65;9.85;;;;;;;;;;5001519;28;20054;-66
2022/05/22 07:40:15;;;;;;;17.45;9.05;;;;;;;;;;4997409;28;20052;-66
2022/05/22 07:42:41;;;;;;;16.60;9.70;;;;;;;;;;5003199;28;20046;-66
2022/05/22 07:45:07;;;;;;;18.50;8.52;;;;;;;;;;5004112;28;20142;-66
2022/05/22 07:47:32;;;;;;;20.45;8.63;;;;;;;;;;5003202;28;20715;-67
2022/05/22 07:52:41;;;;;;;17.33;8.00;;;;;;;;;;5003453;28;20100;-66
2022/05/22 07:55:14;;;;;;;18.27;8.82;;;;;;;;;;5005520;28;20081;-66
2022/05/22 07:57:41;;;;;;;16.58;8.15;;;;;;;;;;5004609;28;20050;-66
2022/05/22 08:00:08;;;;;;;17.88;8.27;;;;;;;;;;5000197;28;20061;-66
2022/05/22 08:02:33;;;;;;;17.20;7.68;;;;;;;;;;5000473;28;20576;-66
2022/05/22 08:04:58;;;;;;;17.48;7.32;;;;;;;;;;5002868;28;20037;-66
2022/05/22 08:07:24;;;;;;;20.27;8.20;;;;;;;;;;5001674;28;20046;-64
2022/05/22 08:09:51;;;;;;;15.23;8.05;;;;;;;;;;5001907;28;20573;-66
2022/05/22 08:12:17;;;;;;;18.08;8.77;;;;;;;;;;5003676;28;20077;-66
2022/05/22 08:14:44;;;;;;;22.27;8.68;;;;;;;;;;5004803;28;20029;-66
2022/05/22 08:17:10;;;;;;;16.48;8.00;;;;;;;;;;5005225;28;20026;-66
2022/05/22 08:19:36;;;;;;;17.08;7.13;;;;;;;;;;5004494;28;20050;-66
2022/05/22 08:22:01;;;;;;;20.10;7.13;;;;;;;;;;5008401;28;20065;-66
2022/05/22 08:24:27;;;;;;;14.13;6.60;;;;;;;;;;5006796;28;20056;-66
2022/05/22 08:26:52;;;;;;;18.48;7.30;;;;;;;;;;5003334;28;20069;-66
2022/05/22 08:29:18;;;;;;;23.00;9.73;;;;;;;;;;5004106;28;20202;-66
2022/05/22 08:31:43;;;;;;;23.27;10.63;;;;;;;;;;5003854;28;20741;-66
2022/05/22 08:34:11;;;;;;;17.92;8.85;;;;;;;;;;5004600;28;20042;-66
2022/05/22 08:36:36;;;;;;;17.52;8.93;;;;;;;;;;5007651;28;20512;-66
2022/05/22 08:39:03;;;;;;;16.20;7.63;;;;;;;;;;4999097;28;20093;-67
2022/05/22 08:41:37;;;;;;;20.00;8.85;;;;;;;;;;4999703;28;20033;-67
2022/05/22 08:44:09;;;;;;;20.58;9.20;;;;;;;;;;5003673;28;20518;-67
2022/05/22 08:47:18;;;;;;;25.65;9.48;;;;;;;;;;5005572;28;20034;-67
2022/05/22 08:49:46;;;;;;;18.25;8.07;;;;;;;;;;4996292;28;20084;-67
2022/05/22 08:52:26;;;;;;;17.05;6.68;;;;;;;;;;5004238;28;20065;-67
2022/05/22 08:55:00;;;;;;;18.67;6.93;;;;;;;;;;5003986;28;20586;-67
2022/05/22 09:00:40;;;;;;;18.00;7.43;;;;;;;;;;5003352;28;20092;-67
2022/05/22 09:03:20;;;;;;;147.07;19.45;;;;;;;;;;4997518;28;20057;-66
2022/05/22 09:05:50;;;;;;;58.97;11.60;;;;;;;;;;5001173;28;20033;-67
2022/05/22 09:08:33;;;;;;;16.75;6.88;;;;;;;;;;5005275;28;20025;-66
2022/05/22 09:11:09;;;;;;;12.77;5.93;;;;;;;;;;5003246;28;20573;-66
2022/05/22 09:13:38;;;;;;;11.13;5.70;;;;;;;;;;4997653;28;20113;-66
2022/05/22 09:16:03;;;;;;;13.38;5.68;;;;;;;;;;5005058;28;20124;-66
2022/05/22 09:18:37;;;;;;;12.57;6.25;;;;;;;;;;5005246;28;20511;-66
2022/05/22 09:21:33;;;;;;;18.05;5.85;;;;;;;;;;5005315;28;20057;-65
2022/05/22 09:24:00;;;;;;;16.05;5.55;;;;;;;;;;4996990;28;20049;-65
2022/05/22 09:26:45;;;;;;;15.55;6.40;;;;;;;;;;4998802;28;20053;-65
2022/05/22 09:29:26;;;;;;;15.63;6.22;;;;;;;;;;4999234;28;20053;-66
2022/05/22 09:32:13;;;;;;;12.77;6.10;;;;;;;;;;5003293;28;20743;-66
2022/05/22 09:34:50;;;;;;;13.50;5.97;;;;;;;;;;5004657;28;20645;-67
2022/05/22 09:37:34;;;;;;;10.57;5.40;;;;;;;;;;5002121;28;20052;-67
2022/05/22 09:40:41;;;;;;;9.98;5.53;;;;;;;;;;5002553;28;20033;-66
2022/05/22 09:43:22;;;;;;;16.60;5.70;;;;;;;;;;5004688;28;20466;-67
2022/05/22 09:45:59;;;;;;;9.65;4.85;;;;;;;;;;5001967;28;20045;-67
2022/05/22 09:48:33;;;;;;;8.93;4.43;;;;;;;;;;5000564;28;20463;-66
2022/05/22 09:51:24;;;;;;;11.30;4.90;;;;;;;;;;5001179;28;20041;-66
2022/05/22 09:54:18;;;;;;;8.98;4.43;;;;;;;;;;5002352;28;20036;-67
2022/05/22 09:57:19;;;;;;;9.57;4.38;;;;;;;;;;5002227;28;20517;-67
2022/05/22 09:59:59;;;;;;;12.60;4.85;;;;;;;;;;5022945;28;20449;-67
2022/05/22 10:02:39;;;;;;;9.50;4.45;;;;;;;;;;5005093;28;20024;-67
2022/05/22 10:05:20;;;;;;;13.63;4.93;;;;;;;;;;5004036;28;20046;-67
2022/05/22 10:07:58;;;;;;;13.48;5.60;;;;;;;;;;4999431;28;20088;-67
2022/05/22 10:10:42;;;;;;;12.48;5.20;;;;;;;;;;5001332;28;20053;-65
2022/05/22 10:13:19;;;;;;;9.23;4.53;;;;;;;;;;5003224;28;20045;-65
2022/05/22 10:15:50;;;;;;;11.82;4.43;;;;;;;;;;4997721;28;20058;-65
2022/05/22 10:18:41;;;;;;;10.27;4.93;;;;;;;;;;4999870;28;20042;-65
2022/05/22 10:21:33;;;;;;;8.15;4.15;;;;;;;;;;4993869;28;20589;-65
2022/05/22 10:24:22;;;;;;;9.00;4.60;;;;;;;;;;5001908;28;20069;-65
2022/05/22 10:27:19;;;;;;;8.55;4.60;;;;;;;;;;4999576;28;20810;-65
2022/05/22 10:29:58;;;;;;;9.40;4.40;;;;;;;;;;5001214;28;20050;-65
2022/05/22 10:32:33;;;;;;;8.15;4.28;;;;;;;;;;5003925;28;20040;-65
2022/05/22 10:35:15;;;;;;;7.28;4.10;;;;;;;;;;4995454;28;20038;-65
2022/05/22 10:37:49;;;;;;;7.95;4.43;;;;;;;;;;5003928;28;20077;-67
2022/05/22 10:40:17;;;;;;;8.13;4.28;;;;;;;;;;5001503;28;20112;-67
2022/05/22 10:42:45;;;;;;;9.15;4.93;;;;;;;;;;5018389;28;20091;-68
2022/05/22 10:45:32;;;;;;;7.65;4.43;;;;;;;;;;5002564;28;20541;-67
2022/05/22 10:48:11;;;;;;;9.88;4.68;;;;;;;;;;4995657;28;20038;-69
2022/05/22 10:50:38;;;;;;;8.88;4.43;;;;;;;;;;4999778;28;20037;-68
2022/05/22 10:53:22;;;;;;;12.48;4.18;;;;;;;;;;5001157;28;20522;-67
2022/05/22 10:55:50;;;;;;;18.20;4.97;;;;;;;;;;4998466;28;20625;-67
2022/05/22 10:58:30;;;;;;;10.82;5.28;;;;;;;;;;5000334;28;20117;-68
2022/05/22 11:00:59;;;;;;;20.95;4.55;;;;;;;;;;5001484;28;20045;-68
2022/05/22 11:03:30;;;;;;;10.13;3.67;;;;;;;;;;4998462;28;20393;-68
2022/05/22 11:05:57;;;;;;;9.38;4.40;;;;;;;;;;5001986;28;20049;-68
2022/05/22 11:08:28;;;;;;;38.65;4.70;;;;;;;;;;5001972;28;20046;-68
2022/05/22 11:10:54;;;;;;;9.38;3.85;;;;;;;;;;4996804;28;20045;-68
2022/05/22 11:13:25;;;;;;;11.80;4.00;;;;;;;;;;5000228;28;20515;-67
2022/05/22 11:15:51;;;;;;;13.60;5.15;;;;;;;;;;5000966;28;20563;-68
2022/05/22 11:18:27;;;;;;;8.35;4.82;;;;;;;;;;5000350;28;20125;-68
2022/05/22 11:21:08;;;;;;;8.50;3.63;;;;;;;;;;4985729;28;20046;-68
2022/05/22 11:23:43;;;;;;;10.38;4.60;;;;;;;;;;4997424;28;20522;-69
2022/05/22 11:26:30;;;;;;;7.82;3.50;;;;;;;;;;4999532;28;20034;-69
2022/05/22 11:29:04;;;;;;;9.77;4.80;;;;;;;;;;5003562;28;20049;-69
2022/05/22 11:31:47;;;;;;;8.85;4.72;;;;;;;;;;5002422;28;20129;-69
2022/05/22 11:34:28;;;;;;;12.05;5.65;;;;;;;;;;5001071;28;20049;-69
2022/05/22 11:37:08;;;;;;;9.82;5.25;;;;;;;;;;5001451;28;20072;-69
2022/05/22 11:39:49;;;;;;;10.10;5.88;;;;;;;;;;5001326;28;20054;-69
2022/05/22 11:42:19;;;;;;;11.85;5.20;;;;;;;;;;5001872;28;20159;-69
2022/05/22 11:44:52;;;;;;;9.57;6.07;;;;;;;;;;5002778;28;20033;-69
2022/05/22 11:47:28;;;;;;;9.43;5.18;;;;;;;;;;5002959;28;20025;-69
2022/05/22 11:50:12;;;;;;;11.18;5.20;;;;;;;;;;5003470;28;20590;-69
2022/05/22 11:52:55;;;;;;;10.35;5.88;;;;;;;;;;5005489;28;20121;-69
2022/05/22 11:55:30;;;;;;;10.15;5.60;;;;;;;;;;5004036;28;20042;-69
2022/05/22 11:58:17;;;;;;;11.73;6.20;;;;;;;;;;5007096;28;20045;-69
2022/05/22 12:00:56;;;;;;;12.90;6.40;;;;;;;;;;5006577;28;20038;-69
2022/05/22 12:03:46;;;;;;;11.48;6.05;;;;;;;;;;5006004;28;20041;-69
2022/05/22 12:06:23;;;;;;;10.60;5.10;;;;;;;;;;4997923;28;20050;-69
2022/05/22 12:09:01;;;;;;;12.85;5.55;;;;;;;;;;5004838;28;20483;-69
2022/05/22 12:11:40;;;;;;;10.27;5.03;;;;;;;;;;5004877;28;20027;-69
2022/05/22 12:14:48;;;;;;;8.93;5.15;;;;;;;;;;5002244;28;20043;-70
2022/05/22 12:17:30;;;;;;;9.73;5.53;;;;;;;;;;5004651;28;20124;-69
2022/05/22 12:20:19;;;;;;;10.85;5.97;;;;;;;;;;5000786;28;20054;-69
2022/05/22 12:23:08;;;;;;;12.77;6.28;;;;;;;;;;5001986;28;20052;-69
2022/05/22 12:25:38;;;;;;;9.07;5.78;;;;;;;;;;5005684;28;20041;-69
2022/05/22 12:28:14;;;;;;;11.40;5.85;;;;;;;;;;5004611;28;20041;-69
2022/05/22 12:30:42;;;;;;;9.70;4.97;;;;;;;;;;5005466;28;20137;-69
2022/05/22 12:33:10;;;;;;;10.07;5.40;;;;;;;;;;4993325;28;20041;-69
2022/05/22 12:35:40;;;;;;;8.93;4.95;;;;;;;;;;5003403;28;20034;-69
2022/05/22 12:38:09;;;;;;;9.93;4.88;;;;;;;;;;5005636;28;20064;-69
2022/05/22 12:40:43;;;;;;;7.68;4.15;;;;;;;;;;4995169;28;20096;-69
2022/05/22 12:43:13;;;;;;;8.55;4.32;;;;;;;;;;5007204;28;20578;-69
2022/05/22 12:45:39;;;;;;;8.57;4.45;;;;;;;;;;5001603;28;20065;-69
2022/05/22 12:48:09;;;;;;;6.13;3.90;;;;;;;;;;5006176;28;20045;-69
2022/05/22 12:50:44;;;;;;;8.77;4.35;;;;;;;;;;4999612;28;20085;-69
2022/05/22 12:53:24;;;;;;;7.22;4.80;;;;;;;;;;5000768;28;20040;-69
2022/05/22 12:55:50;;;;;;;7.35;4.10;;;;;;;;;;5001321;28;20049;-69
2022/05/22 12:58:56;;;;;;;8.27;4.25;;;;;;;;;;5004380;28;20120;-69
2022/05/22 13:01:23;;;;;;;6.50;3.30;;;;;;;;;;5000407;28;20061;-69
2022/05/22 13:03:51;;;;;;;7.03;3.92;;;;;;;;;;5000350;28;20041;-69
2022/05/22 13:06:31;;;;;;;6.00;3.90;;;;;;;;;;4993333;28;20038;-69
2022/05/22 13:09:01;;;;;;;5.40;3.40;;;;;;;;;;5004912;28;20064;-69
2022/05/22 13:11:51;;;;;;;4.97;2.78;;;;;;;;;;5000062;28;20400;-69
2022/05/22 13:14:28;;;;;;;3.85;2.28;;;;;;;;;;5003549;28;20046;-69
2022/05/22 13:16:54;;;;;;;5.05;2.97;;;;;;;;;;5005471;28;20586;-69
2022/05/22 13:19:28;;;;;;;3.53;2.13;;;;;;;;;;5002359;28;20089;-69
2022/05/22 13:21:55;;;;;;;5.13;1.98;;;;;;;;;;5003439;28;20107;-69
2022/05/22 13:24:30;;;;;;;5.43;2.10;;;;;;;;;;5001917;28;20046;-69
2022/05/22 13:27:20;;;;;;;4.05;1.70;;;;;;;;;;5002119;28;20053;-69
2022/05/22 13:29:52;;;;;;;3.15;1.90;;;;;;;;;;5003945;28;20050;-70
2022/05/22 13:32:34;;;;;;;2.80;1.70;;;;;;;;;;5003595;28;20538;-69
2022/05/22 13:35:01;;;;;;;3.35;1.80;;;;;;;;;;5003133;28;20419;-70
2022/05/22 13:37:31;;;;;;;4.05;2.20;;;;;;;;;;5000787;28;20038;-69
2022/05/22 13:40:07;;;;;;;5.75;2.45;;;;;;;;;;5003710;28;20747;-69
2022/05/22 13:42:54;;;;;;;4.28;2.40;;;;;;;;;;5000572;28;20747;-70
2022/05/22 13:45:54;;;;;;;5.47;2.60;;;;;;;;;;5001031;28;20057;-69
2022/05/22 13:48:38;;;;;;;6.30;2.58;;;;;;;;;;4998202;28;20042;-69
2022/05/22 13:54:21;;;;;;;4.72;2.63;;;;;;;;;;5003568;28;20049;-76
2022/05/22 13:56:54;;;;;;;4.83;2.40;;;;;;;;;;5004356;28;20407;-71
2022/05/22 13:59:27;;;;;;;6.10;2.70;;;;;;;;;;5017478;28;20076;-71
2022/05/22 14:01:54;;;;;;;4.40;2.47;;;;;;;;;;5003041;28;20043;-71
2022/05/22 14:04:21;;;;;;;5.25;3.03;;;;;;;;;;5001024;28;20046;-71
2022/05/22 14:06:50;;;;;;;3.85;3.10;;;;;;;;;;5001111;28;20486;-72
2022/05/22 14:09:33;;;;;;;4.50;2.85;;;;;;;;;;4996642;28;20045;-71
2022/05/22 14:11:58;;;;;;;6.22;3.03;;;;;;;;;;5005682;28;20526;-71
2022/05/22 14:14:29;;;;;;;3.38;2.45;;;;;;;;;;5006544;28;20057;-71
2022/05/22 14:17:07;;;;;;;3.45;2.40;;;;;;;;;;5001276;28;20585;-71
2022/05/22 14:19:43;;;;;;;4.13;2.45;;;;;;;;;;5005740;28;20620;-71
2022/05/22 14:22:16;;;;;;;4.00;2.40;;;;;;;;;;5006159;28;20085;-71
2022/05/22 14:24:59;;;;;;;4.43;2.42;;;;;;;;;;5006103;28;20434;-71
2022/05/22 14:27:32;;;;;;;4.13;2.60;;;;;;;;;;5003314;28;20034;-71
2022/05/22 14:30:10;;;;;;;4.53;2.60;;;;;;;;;;4994118;28;20484;-71
2022/05/22 14:32:37;;;;;;;4.13;2.10;;;;;;;;;;4987507;28;20041;-71
2022/05/22 14:35:37;;;;;;;4.78;2.92;;;;;;;;;;5013031;28;20022;-71
2022/05/22 14:38:19;;;;;;;4.40;2.90;;;;;;;;;;4999895;28;20041;-71
2022/05/22 14:40:52;;;;;;;8.23;3.13;;;;;;;;;;5001898;28;20042;-70
2022/05/22 14:43:21;;;;;;;6.55;2.85;;;;;;;;;;5000605;28;20172;-70
2022/05/22 14:45:57;;;;;;;5.15;2.80;;;;;;;;;;5012356;28;20119;-70
2022/05/22 14:48:33;;;;;;;5.35;2.92;;;;;;;;;;4996801;28;20038;-70
2022/05/22 14:51:07;;;;;;;6.13;2.85;;;;;;;;;;5000412;28;20030;-70
2022/05/22 14:53:36;;;;;;;4.43;2.95;;;;;;;;;;4995668;28;20029;-70
2022/05/22 14:56:08;;;;;;;4.80;2.97;;;;;;;;;;4995861;28;20025;-69
2022/05/22 14:58:56;;;;;;;4.38;2.60;;;;;;;;;;5000351;28;20081;-68
2022/05/22 15:01:34;;;;;;;3.78;2.30;;;;;;;;;;5001182;28;20052;-68
2022/05/22 15:04:02;;;;;;;4.60;2.38;;;;;;;;;;4996562;28;20057;-68
2022/05/22 15:06:32;;;;;;;4.85;2.65;;;;;;;;;;5000138;28;20061;-69
2022/05/22 15:09:02;;;;;;;2.85;2.53;;;;;;;;;;5000013;28;20121;-68
2022/05/22 15:11:32;;;;;;;4.38;2.20;;;;;;;;;;5003545;28;20122;-68
2022/05/22 15:14:05;;;;;;;4.47;2.13;;;;;;;;;;5003991;28;20033;-69
2022/05/22 15:16:36;;;;;;;3.67;2.17;;;;;;;;;;4998639;28;20121;-68
2022/05/22 15:25:36;;;;;;;2.65;2.10;;;;;;;;;;5001687;28;20411;-68